createdAt,value
2023-03-04T00:01:22.871Z,100629.66
2023-03-04T00:04:25.574Z,100639.75
2023-03-04T00:07:28.334Z,100639.50
2023-03-04T00:10:31.016Z,100633.97
2023-03-04T00:13:33.820Z,100636.87
2023-03-04T00:16:36.588Z,100644.06
2023-03-04T00:19:39.422Z,100636.56
2023-03-04T00:22:42.154Z,100633.87
2023-03-04T00:25:44.929Z,100627.31
2023-03-04T00:28:47.798Z,100633.16
2023-03-04T00:31:50.652Z,100635.31
2023-03-04T00:34:53.978Z,100632.22
2023-03-04T00:37:56.714Z,100637.50
2023-03-04T00:41:02.518Z,100633.44
2023-03-04T00:44:05.840Z,100637.59
2023-03-04T00:47:08.654Z,100632.81
2023-03-04T00:50:11.805Z,100631.88
2023-03-04T00:53:14.582Z,100629.09
2023-03-04T00:56:17.322Z,100629.94
2023-03-04T00:59:20.036Z,100633.53
2023-03-04T01:02:23.185Z,100621.72
2023-03-04T01:05:26.158Z,100624.41
2023-03-04T01:08:29.089Z,100617.66
2023-03-04T01:11:34.472Z,100614.13
2023-03-04T01:14:37.202Z,100611.75
2023-03-04T01:17:40.504Z,100605.09
2023-03-04T01:20:43.247Z,100601.97
2023-03-04T01:23:45.955Z,100595.22
2023-03-04T01:26:48.765Z,100590.03
2023-03-04T01:29:51.510Z,100591.25
2023-03-04T01:32:54.308Z,100583.94
2023-03-04T01:36:00.118Z,100585.38
2023-03-04T01:39:03.062Z,100589.94
2023-03-04T01:42:06.138Z,100591.69
2023-03-04T01:45:16.697Z,100590.72
2023-03-04T01:48:41.529Z,100588.66
2023-03-04T01:51:52.448Z,100579.31
2023-03-04T01:54:55.730Z,100572.03
2023-03-04T01:57:58.709Z,100575.22
2023-03-04T02:01:01.384Z,100570.38
2023-03-04T02:04:04.232Z,100573.19
2023-03-04T02:07:07.414Z,100570.44
2023-03-04T02:10:11.177Z,100566.72
2023-03-04T02:13:14.766Z,100565.53
2023-03-04T02:16:17.490Z,100549.75
2023-03-04T02:19:32.578Z,100553.25
2023-03-04T02:22:40.788Z,100550.97
2023-03-04T02:25:48.519Z,100546.41
2023-03-04T02:28:53.237Z,100541.16
2023-03-04T02:31:56.088Z,100532.00
2023-03-04T02:34:58.777Z,100523.69
2023-03-04T02:38:01.504Z,100526.38
2023-03-04T02:41:05.327Z,100525.81
2023-03-04T02:44:21.205Z,100528.78
2023-03-04T02:47:23.947Z,100530.09
2023-03-04T02:50:28.923Z,100519.34
2023-03-04T02:53:31.651Z,100518.34
2023-03-04T02:56:34.358Z,100518.06
2023-03-04T02:59:38.738Z,100524.53
2023-03-04T03:02:43.220Z,100520.22
2023-03-04T03:05:46.252Z,100515.69
2023-03-04T03:08:49.005Z,100517.03
2023-03-04T03:11:54.792Z,100521.00
2023-03-04T03:14:57.426Z,100520.44
2023-03-04T03:18:00.112Z,100510.28
2023-03-04T03:21:02.878Z,100513.50
2023-03-04T03:24:06.457Z,100510.94
2023-03-04T03:27:09.157Z,100505.00
2023-03-04T03:30:13.834Z,100506.72
2023-03-04T03:33:16.761Z,100512.41
2023-03-04T03:36:19.536Z,100502.34
2023-03-04T03:39:25.247Z,100500.78
2023-03-04T03:42:28.081Z,100502.00
2023-03-04T03:45:31.061Z,100494.44
2023-03-04T03:48:33.755Z,100497.06
2023-03-04T03:51:36.809Z,100495.56
2023-03-04T03:54:40.323Z,100490.91
2023-03-04T03:57:42.994Z,100482.88
2023-03-04T04:00:45.694Z,100488.56
2023-03-04T04:03:48.400Z,100493.06
2023-03-04T04:06:51.210Z,100491.37
2023-03-04T04:09:58.059Z,100492.28
2023-03-04T04:13:00.808Z,100493.53
2023-03-04T04:16:03.525Z,100490.34
2023-03-04T04:19:06.425Z,100487.16
2023-03-04T04:22:14.747Z,100491.66
2023-03-04T04:25:18.129Z,100486.59
2023-03-04T04:28:20.819Z,100483.91
2023-03-04T04:31:30.197Z,100486.03
2023-03-04T04:34:32.998Z,100483.63
2023-03-04T04:37:35.734Z,100481.44
2023-03-04T04:40:38.357Z,100484.44
2023-03-04T04:43:41.055Z,100475.22
2023-03-04T04:46:43.816Z,100480.69
2023-03-04T04:49:46.530Z,100475.75
2023-03-04T04:52:49.272Z,100476.84
2023-03-04T04:55:53.171Z,100480.53
2023-03-04T04:59:02.078Z,100481.44
2023-03-04T05:02:04.820Z,100494.63
2023-03-04T05:05:07.771Z,100475.69
2023-03-04T05:08:10.438Z,100471.53
2023-03-04T05:11:13.243Z,100482.91
2023-03-04T05:14:16.011Z,100486.03
2023-03-04T05:17:18.716Z,100488.78
2023-03-04T05:20:21.419Z,100474.53
2023-03-04T05:23:29.292Z,100476.34
2023-03-04T05:26:35.586Z,100484.22
2023-03-04T05:29:38.701Z,100486.72
2023-03-04T05:32:41.812Z,100481.56
2023-03-04T05:35:45.323Z,100482.47
2023-03-04T05:38:48.198Z,100482.47
2023-03-04T05:41:51.443Z,100491.34
2023-03-04T05:44:54.129Z,100479.06
2023-03-04T05:47:56.954Z,100488.25
2023-03-04T05:51:01.716Z,100488.37
2023-03-04T05:54:04.567Z,100483.00
2023-03-04T05:57:07.313Z,100480.22
2023-03-04T06:00:16.349Z,100483.56
2023-03-04T06:03:22.659Z,100485.75
2023-03-04T06:06:25.359Z,100488.97
2023-03-04T06:09:28.188Z,100497.44
2023-03-04T06:12:31.167Z,100494.25
2023-03-04T06:15:37.240Z,100493.72
2023-03-04T06:18:40.043Z,100502.50
2023-03-04T06:21:42.791Z,100501.97
2023-03-04T06:24:45.559Z,100501.59
2023-03-04T06:27:50.409Z,100508.75
2023-03-04T06:30:54.350Z,100528.25
2023-03-04T06:33:57.282Z,100511.94
2023-03-04T06:37:00.688Z,100514.03
2023-03-04T06:40:04.480Z,100512.69
2023-03-04T06:43:07.243Z,100516.94
2023-03-04T06:46:10.152Z,100510.56
2023-03-04T06:49:12.959Z,100522.50
2023-03-04T06:52:15.928Z,100523.69
2023-03-04T06:55:18.720Z,100515.59
2023-03-04T06:58:21.752Z,100508.72
2023-03-04T07:01:26.651Z,100514.00
2023-03-04T07:04:29.544Z,100510.94
2023-03-04T07:07:35.440Z,100508.09
2023-03-04T07:10:38.222Z,100515.16
2023-03-04T07:13:41.064Z,100507.28
2023-03-04T07:16:44.041Z,100502.72
2023-03-04T07:19:46.917Z,100502.81
2023-03-04T07:22:49.652Z,100502.47
2023-03-04T07:25:53.497Z,100499.25
2023-03-04T07:28:58.582Z,100498.28
2023-03-04T07:32:01.313Z,100500.19
2023-03-04T07:35:04.515Z,100500.97
2023-03-04T07:38:07.491Z,100504.72
2023-03-04T07:41:10.246Z,100504.81
2023-03-04T07:44:13.774Z,100501.59
2023-03-04T07:47:16.511Z,100516.88
2023-03-04T07:50:19.767Z,100514.41
2023-03-04T07:53:22.558Z,100518.13
2023-03-04T07:56:30.639Z,100513.88
2023-03-04T07:59:33.601Z,100514.56
2023-03-04T08:02:36.460Z,100514.00
2023-03-04T08:05:42.772Z,100500.63
2023-03-04T08:08:46.211Z,100505.19
2023-03-04T08:11:49.432Z,100509.06
2023-03-04T08:14:53.182Z,100510.19
2023-03-04T08:17:55.894Z,100505.97
2023-03-04T08:21:01.968Z,100500.56
2023-03-04T08:24:08.969Z,100506.62
2023-03-04T08:27:14.886Z,100498.84
2023-03-04T08:30:17.877Z,100509.00
2023-03-04T08:33:23.782Z,100503.44
2023-03-04T08:36:26.634Z,100501.28
2023-03-04T08:39:29.527Z,100515.69
2023-03-04T08:42:32.917Z,100504.94
2023-03-04T08:45:35.872Z,100497.66
2023-03-04T08:48:39.099Z,100495.44
2023-03-04T08:51:42.166Z,100493.41
2023-03-04T08:54:44.854Z,100485.44
2023-03-04T08:57:47.513Z,100480.16
2023-03-04T09:00:51.844Z,100483.69
2023-03-04T09:03:54.835Z,100483.50
2023-03-04T09:06:57.619Z,100490.28
2023-03-04T09:10:00.420Z,100478.75
2023-03-04T09:13:03.238Z,100477.78
2023-03-04T09:16:13.361Z,100477.22
2023-03-04T09:19:16.828Z,100473.56
2023-03-04T09:22:20.304Z,100466.66
2023-03-04T09:25:23.306Z,100474.53
2023-03-04T09:28:26.057Z,100466.97
2023-03-04T09:31:29.843Z,100458.94
2023-03-04T09:34:32.802Z,100471.22
2023-03-04T09:37:35.606Z,100457.13
2023-03-04T09:40:42.242Z,100453.66
2023-03-04T09:43:45.896Z,100451.34
2023-03-04T09:46:49.552Z,100452.50
2023-03-04T09:49:57.891Z,100451.56
2023-03-04T09:53:30.452Z,100449.47
2023-03-04T09:56:39.172Z,100445.31
2023-03-04T09:59:48.376Z,100433.84
2023-03-04T10:03:16.734Z,100425.44
2023-03-04T10:06:21.766Z,100415.84
2023-03-04T10:09:28.325Z,100410.78
2023-03-04T10:12:33.275Z,100407.50
2023-03-04T10:15:41.572Z,100408.78
2023-03-04T10:18:48.558Z,100407.97
2023-03-04T10:21:52.882Z,100401.84
2023-03-04T10:24:57.709Z,100394.72
2023-03-04T10:28:17.988Z,100385.41
2023-03-04T10:31:35.589Z,100385.53
2023-03-04T10:34:38.468Z,100378.91
2023-03-04T10:37:50.362Z,100368.44
2023-03-04T10:40:53.191Z,100366.53
2023-03-04T10:44:00.228Z,100366.34
2023-03-04T10:47:03.594Z,100362.22
2023-03-04T10:50:07.226Z,100354.38
2023-03-04T10:55:31.052Z,100338.84
2023-03-04T10:58:34.149Z,100338.84
2023-03-04T11:01:37.050Z,100333.81
2023-03-04T11:04:39.865Z,100336.72
2023-03-04T11:08:00.910Z,100333.62
2023-03-04T11:11:03.782Z,100333.34
2023-03-04T11:14:23.915Z,100330.66
2023-03-04T11:17:28.927Z,100325.94
2023-03-04T11:20:34.130Z,100318.84
2023-03-04T11:23:47.862Z,100308.75
2023-03-04T11:26:54.181Z,100307.63
2023-03-04T11:30:26.497Z,100312.06
2023-03-04T11:33:53.932Z,100299.28
2023-03-04T11:37:05.691Z,100288.22
2023-03-04T11:40:15.047Z,100288.44
2023-03-04T11:43:40.245Z,100284.31
2023-03-04T11:46:46.439Z,100269.22
2023-03-04T11:50:28.082Z,100271.66
2023-03-04T11:53:49.651Z,100260.59
2023-03-04T11:56:57.099Z,100249.56
2023-03-04T12:00:02.911Z,100249.59
2023-03-04T12:03:28.527Z,100242.81
2023-03-04T12:06:50.681Z,100240.53
2023-03-04T12:10:05.615Z,100227.13
2023-03-04T12:13:17.520Z,100234.81
2023-03-04T12:16:35.040Z,100216.97
2023-03-04T12:19:47.330Z,100219.56
2023-03-04T12:23:25.700Z,100195.56
2023-03-04T12:26:54.109Z,100201.41
2023-03-04T12:30:02.569Z,100192.69
2023-03-04T12:33:24.402Z,100198.38
2023-03-04T12:37:02.725Z,100200.78
2023-03-04T12:40:23.403Z,100193.06
2023-03-04T12:43:41.562Z,100195.59
2023-03-04T12:47:18.368Z,100184.25
2023-03-04T12:50:50.448Z,100178.97
2023-03-04T12:54:11.916Z,100174.25
2023-03-04T12:57:18.022Z,100157.06
2023-03-04T13:00:35.102Z,100168.53
2023-03-04T13:04:06.093Z,100151.56
2023-03-04T13:07:16.941Z,100153.09
2023-03-04T13:10:23.921Z,100162.81
2023-03-04T13:13:42.554Z,100158.00
2023-03-04T13:16:50.041Z,100155.69
2023-03-04T13:19:58.012Z,100145.84
2023-03-04T13:23:05.288Z,100159.06
2023-03-04T13:26:24.352Z,100142.16
2023-03-04T13:29:27.081Z,100136.81
2023-03-04T13:32:38.702Z,100142.84
2023-03-04T13:35:50.540Z,100125.03
2023-03-04T13:39:16.291Z,100129.81
2023-03-04T13:42:54.639Z,100137.22
2023-03-04T13:45:57.596Z,100131.34
2023-03-04T13:49:04.185Z,100121.13
2023-03-04T13:52:42.693Z,100119.22
2023-03-04T13:56:05.240Z,100135.41
2023-03-04T13:59:44.958Z,100086.38
2023-03-04T14:02:51.034Z,100114.00
2023-03-04T14:06:20.083Z,100108.44
2023-03-04T14:09:31.637Z,100098.44
2023-03-04T14:12:37.475Z,100104.66
2023-03-04T14:15:40.134Z,100108.22
2023-03-04T14:18:42.895Z,100095.41
2023-03-04T14:21:49.849Z,100097.66
2023-03-04T14:24:59.028Z,100081.94
2023-03-04T14:28:13.941Z,100097.72
2023-03-04T14:31:22.138Z,100094.47
2023-03-04T14:34:35.202Z,100091.63
2023-03-04T14:37:44.855Z,100095.97
2023-03-04T14:41:25.041Z,100077.19
2023-03-04T14:44:36.243Z,100089.19
2023-03-04T14:47:41.692Z,100074.00
2023-03-04T14:50:52.965Z,100074.53
2023-03-04T14:53:58.262Z,100073.34
2023-03-04T14:57:21.176Z,100082.84
2023-03-04T15:00:32.591Z,100090.38
2023-03-04T15:03:35.648Z,100078.81
2023-03-04T15:06:50.803Z,100074.34
2023-03-04T15:09:55.629Z,100082.22
2023-03-04T15:13:01.709Z,100085.94
2023-03-04T15:16:04.578Z,100088.72
2023-03-04T15:19:25.730Z,100081.56
2023-03-04T15:22:28.814Z,100082.97
2023-03-04T15:25:34.700Z,100083.50
2023-03-04T15:28:38.994Z,100066.59
2023-03-04T15:31:45.398Z,100078.53
2023-03-04T15:34:48.237Z,100089.25
2023-03-04T15:37:52.691Z,100094.25
2023-03-04T15:40:56.693Z,100095.13
2023-03-04T15:43:59.347Z,100101.56
2023-03-04T15:47:02.088Z,100094.47
2023-03-04T15:50:05.442Z,100097.84
2023-03-04T15:53:13.074Z,100104.84
2023-03-04T15:56:19.065Z,100108.56
2023-03-04T15:59:24.599Z,100112.13
2023-03-04T16:02:27.973Z,100102.28
2023-03-04T16:05:34.191Z,100121.16
2023-03-04T16:08:37.621Z,100123.88
2023-03-04T16:11:50.658Z,100131.38
2023-03-04T16:14:59.397Z,100137.75
2023-03-04T16:18:02.539Z,100129.78
2023-03-04T16:21:07.345Z,100138.44
2023-03-04T16:24:20.519Z,100135.28
2023-03-04T16:27:24.102Z,100148.16
2023-03-04T16:30:31.442Z,100150.97
2023-03-04T16:33:34.416Z,100142.69
2023-03-04T16:36:37.283Z,100143.00
2023-03-04T16:39:44.254Z,100145.47
2023-03-04T16:42:47.142Z,100141.19
2023-03-04T16:45:49.824Z,100146.44
2023-03-04T16:48:52.694Z,100146.25
2023-03-04T16:51:57.384Z,100158.72
2023-03-04T16:55:00.616Z,100160.47
2023-03-04T16:58:03.900Z,100162.37
2023-03-04T17:01:07.046Z,100175.78
2023-03-04T17:04:10.056Z,100182.91
2023-03-04T17:07:13.147Z,100184.78
2023-03-04T17:10:16.873Z,100197.66
2023-03-04T17:13:19.600Z,100198.81
2023-03-04T17:16:23.232Z,100205.19
2023-03-04T17:19:26.312Z,100215.47
2023-03-04T17:22:29.295Z,100218.94
2023-03-04T17:25:32.286Z,100212.50
2023-03-04T17:28:36.137Z,100235.06
2023-03-04T17:31:39.198Z,100233.50
2023-03-04T17:34:42.221Z,100235.19
2023-03-04T17:37:45.227Z,100240.34
2023-03-04T17:40:48.352Z,100244.25
2023-03-04T17:43:55.233Z,100249.00
2023-03-04T17:46:58.372Z,100247.69
2023-03-04T17:50:01.357Z,100256.81
2023-03-04T17:53:04.462Z,100266.06
2023-03-04T17:56:09.209Z,100262.50
2023-03-04T17:59:15.271Z,100263.22
2023-03-04T18:02:19.217Z,100265.72
2023-03-04T18:05:22.534Z,100268.22
2023-03-04T18:08:31.394Z,100265.84
2023-03-04T18:11:37.398Z,100265.47
2023-03-04T18:14:41.154Z,100253.78
2023-03-04T18:17:45.714Z,100267.41
2023-03-04T18:20:48.485Z,100264.94
2023-03-04T18:23:51.872Z,100274.84
2023-03-04T18:26:56.800Z,100276.62
2023-03-04T18:30:00.875Z,100282.62
2023-03-04T18:33:04.168Z,100278.50
2023-03-04T18:36:09.977Z,100274.37
2023-03-04T18:39:13.116Z,100277.25
2023-03-04T18:42:16.497Z,100271.88
2023-03-04T18:45:21.582Z,100276.91
2023-03-04T18:48:24.938Z,100273.88
2023-03-04T18:51:28.214Z,100282.94
2023-03-04T18:54:31.390Z,100280.72
2023-03-04T18:57:38.527Z,100282.59
2023-03-04T19:00:43.321Z,100283.16
2023-03-04T19:03:46.725Z,100285.03
2023-03-04T19:06:49.889Z,100288.59
2023-03-04T19:09:53.045Z,100296.00
2023-03-04T19:12:59.752Z,100294.16
2023-03-04T19:16:02.949Z,100307.69
2023-03-04T19:19:06.001Z,100301.47
2023-03-04T19:22:09.205Z,100305.56
2023-03-04T19:25:12.438Z,100306.91
2023-03-04T19:28:15.548Z,100304.81
2023-03-04T19:31:18.792Z,100311.34
2023-03-04T19:34:21.867Z,100308.97
2023-03-04T19:37:26.040Z,100310.81
2023-03-04T19:40:30.230Z,100320.53
2023-03-04T19:43:37.098Z,100314.44
2023-03-04T19:46:40.036Z,100320.16
2023-03-04T19:49:43.022Z,100332.97
2023-03-04T19:52:48.634Z,100334.63
2023-03-04T19:55:53.798Z,100339.63
2023-03-04T19:58:57.192Z,100344.12
2023-03-04T20:02:01.495Z,100346.63
2023-03-04T20:05:05.522Z,100351.03
2023-03-04T20:08:08.455Z,100357.53
2023-03-04T20:11:14.155Z,100351.25
2023-03-04T20:14:20.725Z,100361.09
2023-03-04T20:17:24.820Z,100357.69
2023-03-04T20:20:29.494Z,100367.25
2023-03-04T20:23:33.373Z,100362.06
2023-03-04T20:26:39.644Z,100363.00
2023-03-04T20:29:42.644Z,100358.50
2023-03-04T20:32:45.749Z,100362.28
2023-03-04T20:35:48.512Z,100371.41
2023-03-04T20:39:01.523Z,100362.59
2023-03-04T20:42:06.802Z,100355.00
2023-03-04T20:45:10.101Z,100347.44
2023-03-04T20:48:13.048Z,100354.34
2023-03-04T20:51:18.026Z,100359.00
2023-03-04T20:54:22.139Z,100357.34
2023-03-04T20:57:25.153Z,100358.41
2023-03-04T21:00:29.731Z,100354.16
2023-03-04T21:03:33.617Z,100359.75
2023-03-04T21:06:38.899Z,100355.31
2023-03-04T21:09:41.955Z,100357.59
2023-03-04T21:12:44.846Z,100348.78
2023-03-04T21:15:48.356Z,100356.38
2023-03-04T21:18:52.047Z,100354.81
2023-03-04T21:21:55.784Z,100349.81
2023-03-04T21:24:58.498Z,100348.69
2023-03-04T21:28:02.186Z,100356.56
2023-03-04T21:31:05.059Z,100355.63
2023-03-04T21:34:22.053Z,100353.47
2023-03-04T21:37:25.578Z,100349.31
2023-03-04T21:40:28.643Z,100350.13
2023-03-04T21:43:31.631Z,100340.41
2023-03-04T21:46:35.639Z,100346.19
2023-03-04T21:49:39.819Z,100338.72
2023-03-04T21:52:42.938Z,100331.78
2023-03-04T21:55:46.117Z,100329.38
2023-03-04T21:58:48.835Z,100324.53
2023-03-04T22:01:51.897Z,100324.00
2023-03-04T22:04:55.041Z,100320.81
2023-03-04T22:07:57.953Z,100331.56
2023-03-04T22:11:05.598Z,100324.50
2023-03-04T22:14:08.594Z,100330.44
2023-03-04T22:17:11.375Z,100324.53
2023-03-04T22:20:15.187Z,100324.84
2023-03-04T22:23:17.927Z,100327.00
2023-03-04T22:26:27.460Z,100330.72
2023-03-04T22:29:30.428Z,100326.47
2023-03-04T22:32:33.086Z,100318.66
2023-03-04T22:35:39.913Z,100327.25
2023-03-04T22:38:44.753Z,100334.25
2023-03-04T22:41:50.952Z,100333.44
2023-03-04T22:44:55.653Z,100329.34
2023-03-04T22:47:58.916Z,100333.44
2023-03-04T22:51:06.142Z,100332.94
2023-03-04T22:54:14.538Z,100326.53
2023-03-04T22:57:17.162Z,100334.00
2023-03-04T23:00:25.642Z,100327.88
2023-03-04T23:03:31.107Z,100334.88
2023-03-04T23:06:34.208Z,100329.56
2023-03-04T23:09:36.963Z,100326.53
2023-03-04T23:12:43.022Z,100330.03
2023-03-04T23:15:48.793Z,100332.44
2023-03-04T23:18:55.878Z,100330.78
2023-03-04T23:22:03.062Z,100333.91
2023-03-04T23:25:09.271Z,100336.97
2023-03-04T23:28:13.053Z,100339.69
2023-03-04T23:31:15.912Z,100334.72
2023-03-04T23:34:18.599Z,100344.53
2023-03-04T23:37:22.775Z,100336.44
2023-03-04T23:40:25.396Z,100340.34
2023-03-04T23:43:30.165Z,100339.75
2023-03-04T23:46:33.066Z,100334.81
2023-03-04T23:49:36.201Z,100343.19
2023-03-04T23:52:38.816Z,100339.06
2023-03-04T23:55:42.310Z,100342.13
2023-03-04T23:58:46.079Z,100339.41
